PWSweather.com
Personal Weather Stations
Station Observations
OZIERI
Punta Idda, OzieriIT

Punta IddaOzieriIT

Lat: 40.584142, Lon: 9.007657999999992

Elevation: 1483

Station Type: Lacrosse ws2350

Latest ConditionsUpdated 4:59:42 AM GMT+01:01 Wednesday, Aug 21, 2019
Currently Today's Max Today's Min Today's Average
Temperature 69.3°F20.7°C 74.1°F23.4°C 68.4°F20.2°C 71.6°F22.0°C
Dew Point 57.0°F13.9°C 59.0°F15.0°C 55.6°F13.1°C 57.6°F14.2°C
Winds 4.3 mph ESE6.9 kmh ESE 4.3 mph -6.9 kmh - - 1.6 mph 2.6 kmh
Wind Gusts 6.0 mph9.7 kmh 6.0 mph9.7 kmh - -
Humidity 65% 65% 57% 61%
Pressure 30.08 in1018.6 mb 30.09 in1019.0 mb 30.07 in1018.3 mb -
Hour Temp Dew Point Humidity Winds Wind Gusts Pressure Precip Precip Rate Daily Precip Total
04:59 AM 69.3°F20.7°C 57.0°F13.9°C 65% 4.3 mph ESE6.9 kmh ESE 6.0 mph9.7 kmh 30.08 in1018.6 mb 0.00 in0.0 mm 0.00 in0.0 mm 0.00 in0.0 mm
04:57 AM 68.9°F20.5°C 56.7°F13.7°C 65% 3.8 mph ESE6.1 kmh ESE 5.1 mph8.2 kmh 30.08 in1018.6 mb 0.00 in0.0 mm 0.00 in0.0 mm 0.00 in0.0 mm
04:55 AM 68.7°F20.4°C 56.5°F13.6°C 65% 2.7 mph SE4.3 kmh SE 5.1 mph8.2 kmh 30.08 in1018.6 mb 0.00 in0.0 mm 0.00 in0.0 mm 0.00 in0.0 mm
04:53 AM 68.4°F20.2°C 55.8°F13.2°C 64% 2.7 mph ESE4.3 kmh ESE 4.7 mph7.6 kmh 30.08 in1018.6 mb 0.00 in0.0 mm 0.00 in0.0 mm 0.00 in0.0 mm
04:51 AM 68.4°F20.2°C 55.8°F13.2°C 64% 2.7 mph SE4.3 kmh SE 2.2 mph3.5 kmh 30.08 in1018.6 mb 0.00 in0.0 mm 0.00 in0.0 mm 0.00 in0.0 mm
04:48 AM 68.4°F20.2°C 55.8°F13.2°C 64% 3.6 mph ESE5.8 kmh ESE 6.0 mph9.7 kmh 30.08 in1018.6 mb 0.00 in0.0 mm 0.00 in0.0 mm 0.00 in0.0 mm
04:46 AM 68.5°F20.3°C 55.9°F13.3°C 64% 2.7 mph E4.3 kmh E 4.5 mph7.2 kmh 30.07 in1018.3 mb 0.00 in0.0 mm 0.00 in0.0 mm 0.00 in0.0 mm
04:44 AM 68.5°F20.3°C 55.9°F13.3°C 64% 2.2 mph E3.5 kmh E 3.8 mph6.1 kmh 30.08 in1018.6 mb 0.00 in0.0 mm 0.00 in0.0 mm 0.00 in0.0 mm
04:42 AM 68.7°F20.4°C 56.1°F13.4°C 64% 1.8 mph ESE2.9 kmh ESE 3.1 mph5.0 kmh 30.08 in1018.6 mb 0.00 in0.0 mm 0.00 in0.0 mm 0.00 in0.0 mm
04:40 AM 68.7°F20.4°C 56.1°F13.4°C 64% 1.8 mph ESE2.9 kmh ESE 3.1 mph5.0 kmh 30.08 in1018.6 mb 0.00 in0.0 mm 0.00 in0.0 mm 0.00 in0.0 mm
04:37 AM 68.7°F20.4°C 56.1°F13.4°C 64% 0.9 mph E1.4 kmh E 1.6 mph2.6 kmh 30.08 in1018.6 mb 0.00 in0.0 mm 0.00 in0.0 mm 0.00 in0.0 mm
04:35 AM 68.7°F20.4°C 56.1°F13.4°C 64% 1.1 mph E1.8 kmh E 1.8 mph2.9 kmh 30.08 in1018.6 mb 0.00 in0.0 mm 0.00 in0.0 mm 0.00 in0.0 mm
04:33 AM 68.7°F20.4°C 56.1°F13.4°C 64% 2.0 mph SE3.2 kmh SE 2.2 mph3.5 kmh 30.08 in1018.6 mb 0.00 in0.0 mm 0.00 in0.0 mm 0.00 in0.0 mm
04:31 AM 68.7°F20.4°C 55.6°F13.1°C 63% 2.2 mph ESE3.5 kmh ESE 2.9 mph4.7 kmh 30.08 in1018.6 mb 0.00 in0.0 mm 0.00 in0.0 mm 0.00 in0.0 mm
04:29 AM 68.9°F20.5°C 55.8°F13.2°C 63% 2.2 mph ESE3.5 kmh ESE 2.7 mph4.3 kmh 30.09 in1019.0 mb 0.00 in0.0 mm 0.00 in0.0 mm 0.00 in0.0 mm
04:27 AM 69.1°F20.6°C 55.9°F13.3°C 63% 2.0 mph SE3.2 kmh SE 2.9 mph4.7 kmh 30.09 in1019.0 mb 0.00 in0.0 mm 0.00 in0.0 mm 0.00 in0.0 mm
04:24 AM 69.3°F20.7°C 56.1°F13.4°C 63% 1.8 mph ESE2.9 kmh ESE 2.5 mph4.0 kmh 30.09 in1019.0 mb 0.00 in0.0 mm 0.00 in0.0 mm 0.00 in0.0 mm
04:22 AM 69.4°F20.8°C 56.3°F13.5°C 63% 1.1 mph SE1.8 kmh SE 2.2 mph3.5 kmh 30.08 in1018.6 mb 0.00 in0.0 mm 0.00 in0.0 mm 0.00 in0.0 mm
04:20 AM 69.6°F20.9°C 56.5°F13.6°C 63% 0.9 mph NNE1.4 kmh NNE 1.1 mph1.8 kmh 30.09 in1019.0 mb 0.00 in0.0 mm 0.00 in0.0 mm 0.00 in0.0 mm
04:18 AM 69.8°F21.0°C 56.7°F13.7°C 63% 1.6 mph SE2.6 kmh SE 3.1 mph5.0 kmh 30.09 in1019.0 mb 0.00 in0.0 mm 0.00 in0.0 mm 0.00 in0.0 mm
04:16 AM 70.0°F21.1°C 56.8°F13.8°C 63% 0.9 mph E1.4 kmh E 2.0 mph3.2 kmh 30.08 in1018.6 mb 0.00 in0.0 mm 0.00 in0.0 mm 0.00 in0.0 mm
04:14 AM 70.3°F21.3°C 57.2°F14.0°C 63% 1.1 mph WSW1.8 kmh WSW 2.7 mph4.3 kmh 30.09 in1019.0 mb 0.00 in0.0 mm 0.00 in0.0 mm 0.00 in0.0 mm
04:11 AM 70.3°F21.3°C 57.2°F14.0°C 63% 1.1 mph WNW1.8 kmh WNW 2.0 mph3.2 kmh 30.09 in1019.0 mb 0.00 in0.0 mm 0.00 in0.0 mm 0.00 in0.0 mm
04:09 AM 70.5°F21.4°C 57.4°F14.1°C 63% 1.3 mph NW2.1 kmh NW 3.1 mph5.0 kmh 30.09 in1019.0 mb 0.00 in0.0 mm 0.00 in0.0 mm 0.00 in0.0 mm
04:07 AM 70.7°F21.5°C 57.6°F14.2°C 63% 0.7 mph NW1.1 kmh NW 2.0 mph3.2 kmh 30.09 in1019.0 mb 0.00 in0.0 mm 0.00 in0.0 mm 0.00 in0.0 mm
04:05 AM 70.9°F21.6°C 57.7°F14.3°C 63% 0.9 mph NNW1.4 kmh NNW 2.2 mph3.5 kmh 30.08 in1018.6 mb 0.00 in0.0 mm 0.00 in0.0 mm 0.00 in0.0 mm
04:03 AM 71.2°F21.8°C 57.9°F14.4°C 63% 0.4 mph NNW0.6 kmh NNW 1.3 mph2.1 kmh 30.09 in1019.0 mb 0.00 in0.0 mm 0.00 in0.0 mm 0.00 in0.0 mm
04:01 AM 71.2°F21.8°C 57.9°F14.4°C 63% 0.2 mph NW0.3 kmh NW -- 30.08 in1018.6 mb 0.00 in0.0 mm 0.00 in0.0 mm 0.00 in0.0 mm
03:58 AM 71.1°F21.7°C 57.7°F14.3°C 63% 0.4 mph S0.6 kmh S 1.3 mph2.1 kmh 30.08 in1018.6 mb 0.00 in0.0 mm 0.00 in0.0 mm 0.00 in0.0 mm
03:56 AM 70.9°F21.6°C 57.7°F14.3°C 63% 0.4 mph SSE0.6 kmh SSE 1.1 mph1.8 kmh 30.08 in1018.6 mb 0.00 in0.0 mm 0.00 in0.0 mm 0.00 in0.0 mm
03:54 AM 70.9°F21.6°C 57.7°F14.3°C 63% 0.4 mph SSE0.6 kmh SSE -- 30.08 in1018.6 mb 0.00 in0.0 mm 0.00 in0.0 mm 0.00 in0.0 mm
03:52 AM 70.9°F21.6°C 57.7°F14.3°C 63% 0.9 mph W1.4 kmh W 0.9 mph1.4 kmh 30.08 in1018.6 mb 0.00 in0.0 mm 0.00 in0.0 mm 0.00 in0.0 mm
03:50 AM 70.7°F21.5°C 57.6°F14.2°C 63% 1.3 mph W2.1 kmh W 1.3 mph2.1 kmh 30.08 in1018.6 mb 0.00 in0.0 mm 0.00 in0.0 mm 0.00 in0.0 mm
03:48 AM 70.5°F21.4°C 57.4°F14.1°C 63% 1.8 mph WSW2.9 kmh WSW 1.8 mph2.9 kmh 30.07 in1018.3 mb 0.00 in0.0 mm 0.00 in0.0 mm 0.00 in0.0 mm
03:46 AM 70.3°F21.3°C 57.2°F14.0°C 63% 2.2 mph SE3.5 kmh SE 2.5 mph4.0 kmh 30.08 in1018.6 mb 0.00 in0.0 mm 0.00 in0.0 mm 0.00 in0.0 mm
03:44 AM 70.2°F21.2°C 57.0°F13.9°C 63% 2.5 mph SE4.0 kmh SE 2.5 mph4.0 kmh 30.08 in1018.6 mb 0.00 in0.0 mm 0.00 in0.0 mm 0.00 in0.0 mm
03:41 AM 70.2°F21.2°C 57.0°F13.9°C 63% 2.9 mph ESE4.7 kmh ESE 3.1 mph5.0 kmh 30.08 in1018.6 mb 0.00 in0.0 mm 0.00 in0.0 mm 0.00 in0.0 mm
03:39 AM 70.2°F21.2°C 57.0°F13.9°C 63% 3.6 mph SE5.8 kmh SE 4.9 mph7.9 kmh 30.08 in1018.6 mb 0.00 in0.0 mm 0.00 in0.0 mm 0.00 in0.0 mm
03:37 AM 70.2°F21.2°C 57.0°F13.9°C 63% 3.1 mph SE5.0 kmh SE 4.9 mph7.9 kmh 30.07 in1018.3 mb 0.00 in0.0 mm 0.00 in0.0 mm 0.00 in0.0 mm
03:35 AM 70.3°F21.3°C 56.7°F13.7°C 62% 2.5 mph ESE4.0 kmh ESE 3.8 mph6.1 kmh 30.07 in1018.3 mb 0.00 in0.0 mm 0.00 in0.0 mm 0.00 in0.0 mm
03:33 AM 70.3°F21.3°C 56.7°F13.7°C 62% 2.2 mph ESE3.5 kmh ESE 2.9 mph4.7 kmh 30.07 in1018.3 mb 0.00 in0.0 mm 0.00 in0.0 mm 0.00 in0.0 mm
03:31 AM 70.5°F21.4°C 56.8°F13.8°C 62% 2.5 mph SE4.0 kmh SE 3.4 mph5.5 kmh 30.07 in1018.3 mb 0.00 in0.0 mm 0.00 in0.0 mm 0.00 in0.0 mm
03:28 AM 70.9°F21.6°C 57.2°F14.0°C 62% 2.2 mph SE3.5 kmh SE 3.4 mph5.5 kmh 30.07 in1018.3 mb 0.00 in0.0 mm 0.00 in0.0 mm 0.00 in0.0 mm
03:26 AM 71.1°F21.7°C 56.8°F13.8°C 61% 2.0 mph SSW3.2 kmh SSW 3.4 mph5.5 kmh 30.07 in1018.3 mb 0.00 in0.0 mm 0.00 in0.0 mm 0.00 in0.0 mm
03:24 AM 71.4°F21.9°C 57.2°F14.0°C 61% 2.2 mph ESE3.5 kmh ESE 3.8 mph6.1 kmh 30.07 in1018.3 mb 0.00 in0.0 mm 0.00 in0.0 mm 0.00 in0.0 mm
03:22 AM 71.4°F21.9°C 57.2°F14.0°C 61% 1.6 mph SE2.6 kmh SE 2.9 mph4.7 kmh 30.07 in1018.3 mb 0.00 in0.0 mm 0.00 in0.0 mm 0.00 in0.0 mm
03:20 AM 71.8°F22.1°C 57.6°F14.2°C 61% 0.9 mph SSE1.4 kmh SSE 2.0 mph3.2 kmh 30.07 in1018.3 mb 0.00 in0.0 mm 0.00 in0.0 mm 0.00 in0.0 mm
03:17 AM 71.8°F22.1°C 57.6°F14.2°C 61% 0.4 mph SE0.6 kmh SE 1.6 mph2.6 kmh 30.07 in1018.3 mb 0.00 in0.0 mm 0.00 in0.0 mm 0.00 in0.0 mm
03:15 AM 71.8°F22.1°C 58.1°F14.5°C 62% 0.4 mph SSE0.6 kmh SSE 1.1 mph1.8 kmh 30.07 in1018.3 mb 0.00 in0.0 mm 0.00 in0.0 mm 0.00 in0.0 mm
03:13 AM 71.4°F21.9°C 57.7°F14.3°C 62% 0.4 mph SSE0.6 kmh SSE 1.3 mph2.1 kmh 30.07 in1018.3 mb 0.00 in0.0 mm 0.00 in0.0 mm 0.00 in0.0 mm
03:11 AM 71.4°F21.9°C 57.7°F14.3°C 62% 0.4 mph SSE0.6 kmh SSE 1.6 mph2.6 kmh 30.07 in1018.3 mb 0.00 in0.0 mm 0.00 in0.0 mm 0.00 in0.0 mm
03:08 AM 71.2°F21.8°C 57.6°F14.2°C 62% 0.4 mph S0.6 kmh S 0.9 mph1.4 kmh 30.07 in1018.3 mb 0.00 in0.0 mm 0.00 in0.0 mm 0.00 in0.0 mm
03:06 AM 71.2°F21.8°C 57.6°F14.2°C 62% 0.7 mph SE1.1 kmh SE 1.3 mph2.1 kmh 30.08 in1018.6 mb 0.00 in0.0 mm 0.00 in0.0 mm 0.00 in0.0 mm
03:04 AM 71.2°F21.8°C 57.6°F14.2°C 62% 0.9 mph SSE1.4 kmh SSE 1.1 mph1.8 kmh 30.07 in1018.3 mb 0.00 in0.0 mm 0.00 in0.0 mm 0.00 in0.0 mm
03:02 AM 71.2°F21.8°C 57.6°F14.2°C 62% 1.3 mph SSE2.1 kmh SSE 1.6 mph2.6 kmh 30.08 in1018.6 mb 0.00 in0.0 mm 0.00 in0.0 mm 0.00 in0.0 mm
02:59 AM 71.2°F21.8°C 57.6°F14.2°C 62% 1.3 mph SSE2.1 kmh SSE 1.6 mph2.6 kmh 30.07 in1018.3 mb 0.00 in0.0 mm 0.00 in0.0 mm 0.00 in0.0 mm
02:57 AM 71.2°F21.8°C 57.6°F14.2°C 62% 1.6 mph ESE2.6 kmh ESE 2.0 mph3.2 kmh 30.07 in1018.3 mb 0.00 in0.0 mm 0.00 in0.0 mm 0.00 in0.0 mm
02:55 AM 71.2°F21.8°C 57.6°F14.2°C 62% 1.6 mph SE2.6 kmh SE 2.0 mph3.2 kmh 30.08 in1018.6 mb 0.00 in0.0 mm 0.00 in0.0 mm 0.00 in0.0 mm
02:53 AM 71.2°F21.8°C 57.6°F14.2°C 62% 1.8 mph SSE2.9 kmh SSE 2.9 mph4.7 kmh 30.07 in1018.3 mb 0.00 in0.0 mm 0.00 in0.0 mm 0.00 in0.0 mm
02:51 AM 71.1°F21.7°C 57.4°F14.1°C 62% 2.0 mph SSE3.2 kmh SSE 2.7 mph4.3 kmh 30.07 in1018.3 mb 0.00 in0.0 mm 0.00 in0.0 mm 0.00 in0.0 mm
02:48 AM 70.9°F21.6°C 57.2°F14.0°C 62% 2.0 mph SSE3.2 kmh SSE 2.9 mph4.7 kmh 30.07 in1018.3 mb 0.00 in0.0 mm 0.00 in0.0 mm 0.00 in0.0 mm
02:46 AM 70.9°F21.6°C 57.2°F14.0°C 62% 1.8 mph SSE2.9 kmh SSE 2.0 mph3.2 kmh 30.07 in1018.3 mb 0.00 in0.0 mm 0.00 in0.0 mm 0.00 in0.0 mm
02:44 AM 70.9°F21.6°C 57.2°F14.0°C 62% 1.6 mph SSE2.6 kmh SSE 1.6 mph2.6 kmh 30.08 in1018.6 mb 0.00 in0.0 mm 0.00 in0.0 mm 0.00 in0.0 mm
02:41 AM 70.9°F21.6°C 57.2°F14.0°C 62% 2.0 mph SE3.2 kmh SE 2.2 mph3.5 kmh 30.07 in1018.3 mb 0.00 in0.0 mm 0.00 in0.0 mm 0.00 in0.0 mm
02:39 AM 70.9°F21.6°C 57.2°F14.0°C 62% 2.2 mph E3.5 kmh E 2.0 mph3.2 kmh 30.07 in1018.3 mb 0.00 in0.0 mm 0.00 in0.0 mm 0.00 in0.0 mm
02:37 AM 71.1°F21.7°C 56.8°F13.8°C 61% 2.7 mph E4.3 kmh E 3.4 mph5.5 kmh 30.07 in1018.3 mb 0.00 in0.0 mm 0.00 in0.0 mm 0.00 in0.0 mm
02:35 AM 71.2°F21.8°C 57.0°F13.9°C 61% 2.7 mph SE4.3 kmh SE 3.6 mph5.8 kmh 30.07 in1018.3 mb 0.00 in0.0 mm 0.00 in0.0 mm 0.00 in0.0 mm
02:33 AM 71.4°F21.9°C 57.2°F14.0°C 61% 2.5 mph SE4.0 kmh SE 4.0 mph6.4 kmh 30.07 in1018.3 mb 0.00 in0.0 mm 0.00 in0.0 mm 0.00 in0.0 mm
02:31 AM 71.4°F21.9°C 57.2°F14.0°C 61% 2.2 mph ESE3.5 kmh ESE 4.7 mph7.6 kmh 30.07 in1018.3 mb 0.00 in0.0 mm 0.00 in0.0 mm 0.00 in0.0 mm
02:29 AM 71.4°F21.9°C 57.2°F14.0°C 61% 0.9 mph SE1.4 kmh SE 2.0 mph3.2 kmh 30.08 in1018.6 mb 0.00 in0.0 mm 0.00 in0.0 mm 0.00 in0.0 mm
02:27 AM 71.4°F21.9°C 57.2°F14.0°C 61% 0.9 mph E1.4 kmh E 1.6 mph2.6 kmh 30.08 in1018.6 mb 0.00 in0.0 mm 0.00 in0.0 mm 0.00 in0.0 mm
02:24 AM 71.4°F21.9°C 57.2°F14.0°C 61% 0.9 mph SSE1.4 kmh SSE 1.8 mph2.9 kmh 30.08 in1018.6 mb 0.00 in0.0 mm 0.00 in0.0 mm 0.00 in0.0 mm
02:22 AM 71.8°F22.1°C 57.6°F14.2°C 61% 0.7 mph SSE1.1 kmh SSE 1.3 mph2.1 kmh 30.08 in1018.6 mb 0.00 in0.0 mm 0.00 in0.0 mm 0.00 in0.0 mm
02:20 AM 71.8°F22.1°C 57.6°F14.2°C 61% 0.2 mph SE0.3 kmh SE -- 30.08 in1018.6 mb 0.00 in0.0 mm 0.00 in0.0 mm 0.00 in0.0 mm
02:18 AM 71.8°F22.1°C 57.6°F14.2°C 61% 0.2 mph S0.3 kmh S -- 30.08 in1018.6 mb 0.00 in0.0 mm 0.00 in0.0 mm 0.00 in0.0 mm
02:15 AM 72.0°F22.2°C 57.7°F14.3°C 61% 0.2 mph SSE0.3 kmh SSE -- 30.08 in1018.6 mb 0.00 in0.0 mm 0.00 in0.0 mm 0.00 in0.0 mm
02:13 AM 72.1°F22.3°C 57.9°F14.4°C 61% 0.2 mph ESE0.3 kmh ESE -- 30.07 in1018.3 mb 0.00 in0.0 mm 0.00 in0.0 mm 0.00 in0.0 mm
02:11 AM 72.1°F22.3°C 57.9°F14.4°C 61% 0.4 mph NNW0.6 kmh NNW -- 30.08 in1018.6 mb 0.00 in0.0 mm 0.00 in0.0 mm 0.00 in0.0 mm
02:09 AM 72.3°F22.4°C 58.1°F14.5°C 61% 0.7 mph NNW1.1 kmh NNW 2.2 mph3.5 kmh 30.08 in1018.6 mb 0.00 in0.0 mm 0.00 in0.0 mm 0.00 in0.0 mm
02:07 AM 72.3°F22.4°C 57.7°F14.3°C 60% 0.7 mph NW1.1 kmh NW 1.3 mph2.1 kmh 30.08 in1018.6 mb 0.00 in0.0 mm 0.00 in0.0 mm 0.00 in0.0 mm
02:04 AM 72.7°F22.6°C 57.9°F14.4°C 60% 1.1 mph 1.8 kmh 3.4 mph5.5 kmh 30.08 in1018.6 mb 0.00 in0.0 mm 0.00 in0.0 mm 0.00 in0.0 mm
02:02 AM 73.6°F23.1°C 57.9°F14.4°C 58% 0.9 mph NW1.4 kmh NW -- 30.08 in1018.6 mb 0.00 in0.0 mm 0.00 in0.0 mm 0.00 in0.0 mm
01:59 AM 73.6°F23.1°C 57.4°F14.1°C 57% 0.9 mph NNW1.4 kmh NNW 2.5 mph4.0 kmh 30.07 in1018.3 mb 0.00 in0.0 mm 0.00 in0.0 mm 0.00 in0.0 mm
01:56 AM 73.8°F23.2°C 57.6°F14.2°C 57% 0.9 mph NNE1.4 kmh NNE 0.9 mph1.4 kmh 30.07 in1018.3 mb 0.00 in0.0 mm 0.00 in0.0 mm 0.00 in0.0 mm
01:54 AM 73.9°F23.3°C 57.7°F14.3°C 57% 1.6 mph SE2.6 kmh SE 2.5 mph4.0 kmh 30.07 in1018.3 mb 0.00 in0.0 mm 0.00 in0.0 mm 0.00 in0.0 mm
01:52 AM 73.9°F23.3°C 57.7°F14.3°C 57% 2.2 mph SE3.5 kmh SE 3.1 mph5.0 kmh 30.07 in1018.3 mb 0.00 in0.0 mm 0.00 in0.0 mm 0.00 in0.0 mm
01:50 AM 73.9°F23.3°C 57.7°F14.3°C 57% 2.5 mph ESE4.0 kmh ESE 2.9 mph4.7 kmh 30.07 in1018.3 mb 0.00 in0.0 mm 0.00 in0.0 mm 0.00 in0.0 mm
01:47 AM 74.1°F23.4°C 57.9°F14.4°C 57% 2.5 mph ESE4.0 kmh ESE 2.9 mph4.7 kmh 30.07 in1018.3 mb 0.00 in0.0 mm 0.00 in0.0 mm 0.00 in0.0 mm
01:45 AM 73.9°F23.3°C 57.7°F14.3°C 57% 2.2 mph SE3.5 kmh SE 4.3 mph6.9 kmh 30.07 in1018.3 mb 0.00 in0.0 mm 0.00 in0.0 mm 0.00 in0.0 mm
01:43 AM 73.9°F23.3°C 58.3°F14.6°C 58% 1.3 mph SE2.1 kmh SE 2.0 mph3.2 kmh 30.07 in1018.3 mb 0.00 in0.0 mm 0.00 in0.0 mm 0.00 in0.0 mm
01:41 AM 73.8°F23.2°C 58.1°F14.5°C 58% 0.9 mph SE1.4 kmh SE 1.8 mph2.9 kmh 30.07 in1018.3 mb 0.00 in0.0 mm 0.00 in0.0 mm 0.00 in0.0 mm
01:38 AM 73.6°F23.1°C 57.9°F14.4°C 58% 0.9 mph SE1.4 kmh SE 1.6 mph2.6 kmh 30.07 in1018.3 mb 0.00 in0.0 mm 0.00 in0.0 mm 0.00 in0.0 mm
01:36 AM 73.6°F23.1°C 57.9°F14.4°C 58% 1.1 mph ESE1.8 kmh ESE 2.0 mph3.2 kmh 30.07 in1018.3 mb 0.00 in0.0 mm 0.00 in0.0 mm 0.00 in0.0 mm
01:34 AM 73.6°F23.1°C 58.3°F14.6°C 59% 1.1 mph SSE1.8 kmh SSE 2.0 mph3.2 kmh 30.07 in1018.3 mb 0.00 in0.0 mm 0.00 in0.0 mm 0.00 in0.0 mm
01:32 AM 73.6°F23.1°C 58.3°F14.6°C 59% 1.6 mph SE2.6 kmh SE 2.5 mph4.0 kmh 30.07 in1018.3 mb 0.00 in0.0 mm 0.00 in0.0 mm 0.00 in0.0 mm
01:30 AM 73.6°F23.1°C 58.3°F14.6°C 59% 1.8 mph SSE2.9 kmh SSE 1.6 mph2.6 kmh 30.07 in1018.3 mb 0.00 in0.0 mm 0.00 in0.0 mm 0.00 in0.0 mm
01:28 AM 73.6°F23.1°C 58.3°F14.6°C 59% 2.5 mph SE4.0 kmh SE 3.6 mph5.8 kmh 30.08 in1018.6 mb 0.00 in0.0 mm 0.00 in0.0 mm 0.00 in0.0 mm
01:25 AM 73.6°F23.1°C 58.3°F14.6°C 59% 2.7 mph SE4.3 kmh SE 3.4 mph5.5 kmh 30.07 in1018.3 mb 0.00 in0.0 mm 0.00 in0.0 mm 0.00 in0.0 mm
01:23 AM 73.4°F23.0°C 58.6°F14.8°C 60% 2.0 mph SE3.2 kmh SE 3.4 mph5.5 kmh 30.08 in1018.6 mb 0.00 in0.0 mm 0.00 in0.0 mm 0.00 in0.0 mm
01:21 AM 73.2°F22.9°C 58.5°F14.7°C 60% 1.8 mph SSE2.9 kmh SSE 2.0 mph3.2 kmh 30.08 in1018.6 mb 0.00 in0.0 mm 0.00 in0.0 mm 0.00 in0.0 mm
01:19 AM 73.2°F22.9°C 58.5°F14.7°C 60% 1.8 mph E2.9 kmh E 2.5 mph4.0 kmh 30.08 in1018.6 mb 0.00 in0.0 mm 0.00 in0.0 mm 0.00 in0.0 mm
01:16 AM 73.0°F22.8°C 58.3°F14.6°C 60% 2.7 mph SE4.3 kmh SE 3.1 mph5.0 kmh 30.08 in1018.6 mb 0.00 in0.0 mm 0.00 in0.0 mm 0.00 in0.0 mm
01:14 AM 73.0°F22.8°C 58.3°F14.6°C 60% 2.9 mph SE4.7 kmh SE 3.8 mph6.1 kmh 30.08 in1018.6 mb 0.00 in0.0 mm 0.00 in0.0 mm 0.00 in0.0 mm
01:12 AM 72.9°F22.7°C 58.1°F14.5°C 60% 3.1 mph SE5.0 kmh SE 4.0 mph6.4 kmh 30.08 in1018.6 mb 0.00 in0.0 mm 0.00 in0.0 mm 0.00 in0.0 mm
01:10 AM 72.9°F22.7°C 58.1°F14.5°C 60% 2.5 mph SE4.0 kmh SE 2.9 mph4.7 kmh 30.08 in1018.6 mb 0.00 in0.0 mm 0.00 in0.0 mm 0.00 in0.0 mm
01:07 AM 73.0°F22.8°C 58.3°F14.6°C 60% 2.5 mph ESE4.0 kmh ESE 3.6 mph5.8 kmh 30.08 in1018.6 mb 0.00 in0.0 mm 0.00 in0.0 mm 0.00 in0.0 mm
01:05 AM 73.2°F22.9°C 58.5°F14.7°C 60% 2.0 mph SE3.2 kmh SE 5.1 mph8.2 kmh 30.08 in1018.6 mb 0.00 in0.0 mm 0.00 in0.0 mm 0.00 in0.0 mm
01:03 AM 73.2°F22.9°C 58.5°F14.7°C 60% 0.9 mph SSE1.4 kmh SSE 2.0 mph3.2 kmh 30.08 in1018.6 mb 0.00 in0.0 mm 0.00 in0.0 mm 0.00 in0.0 mm
01:01 AM 73.0°F22.8°C 58.8°F14.9°C 61% 0.7 mph SSE1.1 kmh SSE 0.9 mph1.4 kmh 30.08 in1018.6 mb 0.00 in0.0 mm 0.00 in0.0 mm 0.00 in0.0 mm
12:59 AM 72.7°F22.6°C 58.5°F14.7°C 61% 0.9 mph SW1.4 kmh SW 2.0 mph3.2 kmh 30.08 in1018.6 mb 0.00 in0.0 mm 0.00 in0.0 mm 0.00 in0.0 mm
12:56 AM 72.3°F22.4°C 58.6°F14.8°C 62% 1.1 mph SSE1.8 kmh SSE 3.1 mph5.0 kmh 30.08 in1018.6 mb 0.00 in0.0 mm 0.00 in0.0 mm 0.00 in0.0 mm
12:54 AM 72.1°F22.3°C 57.9°F14.4°C 61% 0.7 mph S1.1 kmh S 1.3 mph2.1 kmh 30.08 in1018.6 mb 0.00 in0.0 mm 0.00 in0.0 mm 0.00 in0.0 mm
12:52 AM 72.1°F22.3°C 57.9°F14.4°C 61% 0.9 mph ESE1.4 kmh ESE 0.9 mph1.4 kmh 30.08 in1018.6 mb 0.00 in0.0 mm 0.00 in0.0 mm 0.00 in0.0 mm
12:50 AM 72.1°F22.3°C 58.5°F14.7°C 62% 1.6 mph ESE2.6 kmh ESE 2.2 mph3.5 kmh 30.08 in1018.6 mb 0.00 in0.0 mm 0.00 in0.0 mm 0.00 in0.0 mm
12:48 AM 72.1°F22.3°C 57.9°F14.4°C 61% 1.8 mph SSE2.9 kmh SSE 1.8 mph2.9 kmh 30.08 in1018.6 mb 0.00 in0.0 mm 0.00 in0.0 mm 0.00 in0.0 mm
12:45 AM 72.1°F22.3°C 57.9°F14.4°C 61% 2.5 mph ESE4.0 kmh ESE 3.6 mph5.8 kmh 30.08 in1018.6 mb 0.00 in0.0 mm 0.00 in0.0 mm 0.00 in0.0 mm
12:43 AM 72.3°F22.4°C 58.1°F14.5°C 61% 2.5 mph SE4.0 kmh SE 4.0 mph6.4 kmh 30.08 in1018.6 mb 0.00 in0.0 mm 0.00 in0.0 mm 0.00 in0.0 mm
12:41 AM 72.3°F22.4°C 58.1°F14.5°C 61% 3.1 mph SE5.0 kmh SE 4.7 mph7.6 kmh 30.08 in1018.6 mb 0.00 in0.0 mm 0.00 in0.0 mm 0.00 in0.0 mm
12:39 AM 72.5°F22.5°C 58.3°F14.6°C 61% 2.5 mph ESE4.0 kmh ESE 3.6 mph5.8 kmh 30.08 in1018.6 mb 0.00 in0.0 mm 0.00 in0.0 mm 0.00 in0.0 mm
12:36 AM 72.7°F22.6°C 58.5°F14.7°C 61% 1.6 mph ESE2.6 kmh ESE 2.9 mph4.7 kmh 30.08 in1018.6 mb 0.00 in0.0 mm 0.00 in0.0 mm 0.00 in0.0 mm
12:34 AM 72.9°F22.7°C 58.6°F14.8°C 61% 1.1 mph ESE1.8 kmh ESE 2.5 mph4.0 kmh 30.08 in1018.6 mb 0.00 in0.0 mm 0.00 in0.0 mm 0.00 in0.0 mm
12:32 AM 72.7°F22.6°C 58.5°F14.7°C 61% 1.1 mph SSE1.8 kmh SSE 1.8 mph2.9 kmh 30.08 in1018.6 mb 0.00 in0.0 mm 0.00 in0.0 mm 0.00 in0.0 mm
12:30 AM 72.7°F22.6°C 58.5°F14.7°C 61% 1.3 mph SSE2.1 kmh SSE 1.6 mph2.6 kmh 30.08 in1018.6 mb 0.00 in0.0 mm 0.00 in0.0 mm 0.00 in0.0 mm
12:28 AM 72.7°F22.6°C 58.5°F14.7°C 61% 1.1 mph SSE1.8 kmh SSE 1.3 mph2.1 kmh 30.08 in1018.6 mb 0.00 in0.0 mm 0.00 in0.0 mm 0.00 in0.0 mm
12:26 AM 72.7°F22.6°C 58.5°F14.7°C 61% 1.6 mph SSE2.6 kmh SSE 1.3 mph2.1 kmh 30.08 in1018.6 mb 0.00 in0.0 mm 0.00 in0.0 mm 0.00 in0.0 mm
12:24 AM 72.7°F22.6°C 58.5°F14.7°C 61% 2.2 mph SSE3.5 kmh SSE 2.9 mph4.7 kmh 30.08 in1018.6 mb 0.00 in0.0 mm 0.00 in0.0 mm 0.00 in0.0 mm
12:21 AM 72.9°F22.7°C 58.6°F14.8°C 61% 2.5 mph SE4.0 kmh SE 3.8 mph6.1 kmh 30.09 in1019.0 mb 0.00 in0.0 mm 0.00 in0.0 mm 0.00 in0.0 mm
12:19 AM 73.0°F22.8°C 58.8°F14.9°C 61% 1.8 mph SE2.9 kmh SE 2.9 mph4.7 kmh 30.08 in1018.6 mb 0.00 in0.0 mm 0.00 in0.0 mm 0.00 in0.0 mm
12:17 AM 73.2°F22.9°C 59.0°F15.0°C 61% 0.9 mph ESE1.4 kmh ESE 2.5 mph4.0 kmh 30.08 in1018.6 mb 0.00 in0.0 mm 0.00 in0.0 mm 0.00 in0.0 mm
12:15 AM 73.2°F22.9°C 59.0°F15.0°C 61% 0.2 mph W0.3 kmh W -- 30.08 in1018.6 mb 0.00 in0.0 mm 0.00 in0.0 mm 0.00 in0.0 mm
12:12 AM 73.2°F22.9°C 59.0°F15.0°C 61% 0.4 mph NNE0.6 kmh NNE 1.8 mph2.9 kmh 30.08 in1018.6 mb 0.00 in0.0 mm 0.00 in0.0 mm 0.00 in0.0 mm
12:10 AM 73.2°F22.9°C 59.0°F15.0°C 61% 0.7 mph SE1.1 kmh SE 1.8 mph2.9 kmh 30.08 in1018.6 mb 0.00 in0.0 mm 0.00 in0.0 mm 0.00 in0.0 mm
12:08 AM 73.0°F22.8°C 58.8°F14.9°C 61% 0.7 mph SSE1.1 kmh SSE 1.3 mph2.1 kmh 30.08 in1018.6 mb 0.00 in0.0 mm 0.00 in0.0 mm 0.00 in0.0 mm
12:06 AM 73.0°F22.8°C 58.8°F14.9°C 61% 0.4 mph SSE0.6 kmh SSE 0.9 mph1.4 kmh 30.08 in1018.6 mb 0.00 in0.0 mm 0.00 in0.0 mm 0.00 in0.0 mm
12:04 AM 72.9°F22.7°C 58.6°F14.8°C 61% 0.9 mph S1.4 kmh S 2.5 mph4.0 kmh 30.08 in1018.6 mb 0.00 in0.0 mm 0.00 in0.0 mm 0.00 in0.0 mm
12:02 AM 72.7°F22.6°C 58.5°F14.7°C 61% 1.1 mph WSW1.8 kmh WSW 1.3 mph2.1 kmh 30.08 in1018.6 mb 0.00 in0.0 mm 0.00 in0.0 mm 0.00 in0.0 mm
12:00 AM 72.7°F22.6°C 58.5°F14.7°C 61% 1.6 mph SE2.6 kmh SE 2.0 mph3.2 kmh 30.08 in1018.6 mb 0.00 in0.0 mm 0.00 in0.0 mm 0.00 in0.0 mm